Time;durP1;ratioP1;P1;durP2;ratioP2;P2;SDS_P1;SDS_P2;PMS_P1;PMS_P2;Temp;Humidity;BMP_temperature;BMP_pressure;BME280_temperature;BME280_humidity;BME280_pressure;Samples;Min_cycle;Max_cycle;Signal;HPM_P1;HPM_P2
2022/06/07 04:04:56;;;;;;;0.90;0.90;;;16.90;99.90;;;;;;5190648;23;20862;-66
2022/06/07 04:10:06;;;;;;;0.60;0.60;;;16.90;99.90;;;;;;4994470;28;20175;-70
2022/06/07 04:12:32;;;;;;;0.97;0.97;;;16.90;99.90;;;;;;4982298;28;20425;-70
2022/06/07 04:14:57;;;;;;;0.70;0.70;;;16.90;99.90;;;;;;4983712;28;20944;-68
2022/06/07 04:17:23;;;;;;;1.50;0.93;;;17.00;99.90;;;;;;4992184;28;20267;-69
2022/06/07 04:19:48;;;;;;;0.80;0.80;;;17.00;99.90;;;;;;4994221;28;20285;-70
2022/06/07 04:22:14;;;;;;;0.90;0.90;;;17.10;99.90;;;;;;4993873;28;20169;-70
2022/06/07 04:24:39;;;;;;;1.03;1.03;;;17.10;99.90;;;;;;4994134;28;20276;-70
2022/06/07 04:27:05;;;;;;;1.33;1.00;;;17.20;99.90;;;;;;4982625;28;20244;-68
2022/06/07 04:29:31;;;;;;;0.87;0.87;;;17.20;99.90;;;;;;4989462;28;20188;-70
2022/06/07 04:31:57;;;;;;;0.70;0.70;;;17.10;99.90;;;;;;4992771;28;20749;-69
2022/06/07 04:34:23;;;;;;;0.90;0.90;;;17.10;99.90;;;;;;4992596;28;20189;-68
2022/06/07 04:36:48;;;;;;;1.30;1.30;;;17.10;99.90;;;;;;4992338;28;20459;-68
2022/06/07 04:39:14;;;;;;;0.80;0.80;;;17.10;99.90;;;;;;4992596;28;20172;-70
2022/06/07 04:41:40;;;;;;;1.00;1.00;;;17.10;99.90;;;;;;4993997;28;20165;-69
2022/06/07 04:44:06;;;;;;;0.93;0.90;;;17.10;99.90;;;;;;4993555;28;20292;-70
2022/06/07 04:46:32;;;;;;;0.97;0.97;;;17.10;99.90;;;;;;4993874;28;20455;-69
2022/06/07 04:48:58;;;;;;;1.30;1.20;;;17.10;99.90;;;;;;4993960;28;20840;-69
2022/06/07 04:51:27;;;;;;;1.03;0.97;;;17.10;99.90;;;;;;4975837;28;20514;-70
2022/06/07 04:53:54;;;;;;;1.10;1.10;;;17.10;99.90;;;;;;4973856;28;20647;-68
2022/06/07 04:56:29;;;;;;;1.20;1.10;;;17.10;99.90;;;;;;4974363;28;20492;-68
2022/06/07 04:58:56;;;;;;;1.17;1.10;;;17.00;99.90;;;;;;4974296;28;20764;-69
2022/06/07 05:01:28;;;;;;;1.40;1.10;;;17.10;99.90;;;;;;4975309;28;20901;-70
2022/06/07 05:03:55;;;;;;;1.00;1.00;;;17.10;99.90;;;;;;4993253;28;20415;-69
2022/06/07 05:06:33;;;;;;;1.70;1.60;;;17.10;99.90;;;;;;4993655;28;20476;-68
2022/06/07 05:09:24;;;;;;;1.57;1.47;;;17.10;99.90;;;;;;4993600;28;20904;-70
2022/06/07 05:11:53;;;;;;;1.30;1.20;;;17.10;99.90;;;;;;4993816;28;20463;-68
2022/06/07 05:14:19;;;;;;;1.30;1.30;;;17.20;99.90;;;;;;4979439;28;20447;-67
2022/06/07 05:16:44;;;;;;;1.23;1.23;;;17.20;99.90;;;;;;4974333;28;20823;-68
2022/06/07 05:19:12;;;;;;;1.27;1.17;;;17.30;99.90;;;;;;4974289;28;20412;-67
2022/06/07 05:21:38;;;;;;;1.33;1.23;;;17.30;99.90;;;;;;4974038;28;20507;-67
2022/06/07 05:24:05;;;;;;;2.50;1.53;;;17.30;99.90;;;;;;4973677;28;20384;-66
2022/06/07 05:26:45;;;;;;;1.47;1.37;;;17.40;99.90;;;;;;4974128;28;20392;-66
2022/06/07 05:29:38;;;;;;;1.00;1.00;;;17.40;99.90;;;;;;4990738;28;20432;-66
2022/06/07 05:32:04;;;;;;;1.10;1.10;;;17.40;99.90;;;;;;4978096;28;20408;-66
2022/06/07 05:34:30;;;;;;;1.20;1.10;;;17.40;99.90;;;;;;4989058;28;20509;-66
2022/06/07 05:36:55;;;;;;;1.20;1.03;;;17.50;99.90;;;;;;4978907;28;20875;-67
2022/06/07 05:39:27;;;;;;;1.97;1.20;;;17.50;99.90;;;;;;4995227;28;20171;-66
2022/06/07 05:41:52;;;;;;;1.30;1.20;;;17.40;99.90;;;;;;4997303;28;20178;-65
2022/06/07 05:44:19;;;;;;;0.80;0.80;;;17.40;99.90;;;;;;4987845;28;20448;-64
2022/06/07 05:46:45;;;;;;;1.23;1.20;;;17.40;99.90;;;;;;4984220;28;20594;-65
2022/06/07 05:49:12;;;;;;;1.30;1.20;;;17.40;99.90;;;;;;4977559;28;20425;-63
2022/06/07 05:51:38;;;;;;;1.23;1.23;;;17.40;99.90;;;;;;4988339;28;20470;-67
2022/06/07 05:54:05;;;;;;;3.53;3.23;;;17.40;99.90;;;;;;4976954;28;20428;-67
2022/06/07 05:56:31;;;;;;;2.83;2.63;;;17.50;99.90;;;;;;4978421;28;20468;-67
2022/06/07 05:58:57;;;;;;;1.90;1.23;;;17.60;99.90;;;;;;4977644;28;20496;-66
2022/06/07 06:01:23;;;;;;;1.70;1.60;;;17.70;99.90;;;;;;4982433;28;20187;-68
2022/06/07 06:03:48;;;;;;;2.20;2.00;;;17.80;99.90;;;;;;4987759;28;20430;-67
2022/06/07 06:06:15;;;;;;;1.20;1.17;;;17.90;99.90;;;;;;4991899;28;20192;-69
2022/06/07 06:11:40;;;;;;;1.00;1.00;;;18.20;99.90;;;;;;4976863;28;20417;-71
2022/06/07 06:14:06;;;;;;;0.80;0.80;;;18.40;99.90;;;;;;4977704;28;20654;-68
2022/06/07 06:16:31;;;;;;;1.07;1.07;;;18.60;99.90;;;;;;4980915;28;20442;-69
2022/06/07 06:18:59;;;;;;;3.37;1.50;;;18.80;99.90;;;;;;4994118;28;20183;-69
2022/06/07 06:21:32;;;;;;;1.30;1.30;;;19.00;99.90;;;;;;4992602;28;20171;-69
2022/06/07 06:23:59;;;;;;;1.50;1.20;;;19.10;99.90;;;;;;4975861;28;20402;-70
2022/06/07 06:26:26;;;;;;;0.90;0.90;;;19.40;99.90;;;;;;4977292;28;20431;-69
2022/06/07 06:28:53;;;;;;;1.33;1.33;;;19.50;99.90;;;;;;4975715;28;20419;-69
2022/06/07 06:31:19;;;;;;;1.17;1.10;;;19.80;99.90;;;;;;4988760;28;20935;-69
2022/06/07 06:33:48;;;;;;;2.40;1.00;;;20.00;99.90;;;;;;4985645;28;20406;-72
2022/06/07 06:36:16;;;;;;;1.13;1.10;;;20.20;99.90;;;;;;4983606;28;20591;-70
2022/06/07 06:38:43;;;;;;;1.27;1.17;;;20.50;99.90;;;;;;4990699;28;20418;-70
2022/06/07 06:41:13;;;;;;;1.23;1.17;;;20.60;99.90;;;;;;4993595;28;20420;-71
2022/06/07 06:43:41;;;;;;;2.00;1.30;;;20.70;99.70;;;;;;4988503;28;20460;-68
2022/06/07 06:46:13;;;;;;;1.03;1.03;;;20.80;99.80;;;;;;4979601;28;20897;-69
2022/06/07 06:48:39;;;;;;;1.87;1.27;;;20.80;99.90;;;;;;4976105;28;20406;-66
2022/06/07 06:51:08;;;;;;;1.40;1.07;;;20.90;99.90;;;;;;4977760;28;20429;-70
2022/06/07 06:53:34;;;;;;;7.53;2.63;;;21.20;99.60;;;;;;4992279;28;20849;-68
2022/06/07 06:56:00;;;;;;;1.50;1.40;;;21.50;98.50;;;;;;4995556;28;20437;-69
2022/06/07 06:58:26;;;;;;;1.23;1.13;;;21.70;98.20;;;;;;4994736;28;20903;-70
2022/06/07 07:01:12;;;;;;;1.00;1.00;;;21.90;97.60;;;;;;4991670;28;20195;-68
2022/06/07 07:03:39;;;;;;;1.43;1.20;;;22.00;97.60;;;;;;4991237;28;20401;-66
2022/06/07 07:06:08;;;;;;;1.77;1.10;;;22.10;97.30;;;;;;4994852;28;20493;-66
2022/06/07 07:08:35;;;;;;;1.07;0.90;;;22.20;96.30;;;;;;4994276;28;20446;-65
2022/06/07 07:11:02;;;;;;;2.10;1.27;;;22.40;96.50;;;;;;4993792;28;20419;-69
2022/06/07 07:13:29;;;;;;;1.17;0.87;;;22.60;96.90;;;;;;4993626;28;20410;-68
2022/06/07 07:15:55;;;;;;;1.00;1.00;;;22.70;95.40;;;;;;4993006;28;20437;-69
2022/06/07 07:18:21;;;;;;;0.97;0.97;;;22.80;94.80;;;;;;4978747;28;20831;-69
2022/06/07 07:20:46;;;;;;;1.00;1.00;;;22.80;94.50;;;;;;4990691;28;20206;-68
2022/06/07 07:23:12;;;;;;;1.00;1.00;;;22.90;94.00;;;;;;4980587;28;20183;-68
2022/06/07 07:25:38;;;;;;;1.10;1.10;;;23.10;94.20;;;;;;4989427;28;20200;-67
2022/06/07 07:28:04;;;;;;;1.23;1.13;;;23.20;93.80;;;;;;4992595;28;20434;-68
2022/06/07 07:30:30;;;;;;;0.70;0.70;;;23.20;93.50;;;;;;4992599;28;20567;-68
2022/06/07 07:32:56;;;;;;;0.87;0.87;;;23.30;93.40;;;;;;4986528;28;20416;-68
2022/06/07 07:35:23;;;;;;;0.80;0.80;;;23.50;93.20;;;;;;4992321;28;20770;-70
2022/06/07 07:37:49;;;;;;;0.90;0.90;;;23.60;93.10;;;;;;4984251;28;20444;-71
2022/06/07 07:40:15;;;;;;;1.53;1.20;;;23.90;93.30;;;;;;4976260;28;20403;-71
2022/06/07 07:42:43;;;;;;;1.00;1.00;;;24.20;92.90;;;;;;4986033;28;20182;-72
2022/06/07 07:45:10;;;;;;;0.97;0.90;;;24.80;91.70;;;;;;4977417;28;20439;-72
2022/06/07 07:47:36;;;;;;;0.80;0.80;;;25.30;90.10;;;;;;4983263;28;20433;-72
2022/06/07 07:50:02;;;;;;;0.70;0.70;;;25.30;90.30;;;;;;4983367;28;20455;-70
2022/06/07 07:52:28;;;;;;;0.93;0.93;;;25.40;90.50;;;;;;4977841;28;20194;-71
2022/06/07 07:54:53;;;;;;;2.40;2.13;;;25.70;90.20;;;;;;4990329;28;20434;-71
2022/06/07 07:57:19;;;;;;;0.87;0.87;;;25.90;90.00;;;;;;5007591;28;20913;-72
2022/06/07 07:59:45;;;;;;;0.70;0.70;;;26.00;86.20;;;;;;4992523;28;20267;-71
2022/06/07 08:02:20;;;;;;;0.90;0.90;;;25.80;85.80;;;;;;4976490;28;20552;-71
2022/06/07 08:04:46;;;;;;;1.80;1.00;;;26.00;87.40;;;;;;4972327;28;20230;-72
2022/06/07 08:07:12;;;;;;;0.90;0.90;;;26.40;86.00;;;;;;4935723;28;1479227;-72
2022/06/07 08:09:38;;;;;;;1.03;1.03;;;26.80;87.10;;;;;;4974395;28;20246;-72
2022/06/07 08:12:08;;;;;;;1.10;1.00;;;27.20;84.30;;;;;;4989935;28;20195;-71
2022/06/07 08:14:36;;;;;;;0.73;0.73;;;27.50;83.10;;;;;;4974633;28;20459;-73
2022/06/07 08:17:02;;;;;;;0.70;0.70;;;27.70;82.50;;;;;;4984215;28;20466;-71
2022/06/07 08:19:28;;;;;;;1.20;1.10;;;27.40;80.20;;;;;;4983117;28;20477;-71
2022/06/07 08:21:54;;;;;;;0.70;0.70;;;27.20;82.00;;;;;;4993567;28;20423;-71
2022/06/07 08:24:19;;;;;;;0.73;0.73;;;27.40;81.80;;;;;;4991247;28;20207;-72
2022/06/07 08:26:48;;;;;;;1.00;1.00;;;27.60;79.70;;;;;;4992880;28;20562;-71
2022/06/07 08:29:15;;;;;;;1.67;1.40;;;27.20;80.20;;;;;;4978664;28;20180;-70
2022/06/07 08:31:41;;;;;;;1.40;1.40;;;26.80;81.70;;;;;;4977164;28;20779;-70
2022/06/07 08:39:37;;;;;;;1.13;0.87;;;25.80;82.20;;;;;;4974355;28;20453;-69
2022/06/07 08:42:27;;;;;;;1.57;1.00;;;25.40;82.90;;;;;;4980196;28;20484;-70
2022/06/07 08:45:03;;;;;;;0.63;0.63;;;25.10;84.00;;;;;;4965475;28;20793;-71
2022/06/07 08:47:58;;;;;;;1.00;0.97;;;25.20;85.40;;;;;;4979558;28;20404;-71
2022/06/07 08:50:28;;;;;;;0.87;0.87;;;25.50;83.00;;;;;;4973234;28;20407;-71
2022/06/07 08:53:02;;;;;;;1.10;1.00;;;25.80;82.40;;;;;;4983616;28;20468;-73
2022/06/07 08:55:35;;;;;;;0.87;0.87;;;25.80;81.60;;;;;;5000058;28;20500;-72
2022/06/07 08:58:23;;;;;;;0.90;0.73;;;26.00;81.70;;;;;;4974521;28;20418;-71
2022/06/07 09:00:53;;;;;;;0.83;0.83;;;26.00;82.30;;;;;;4986040;28;20434;-68
2022/06/07 09:03:25;;;;;;;3.83;1.00;;;26.10;82.50;;;;;;4988633;28;20415;-69
2022/06/07 09:05:57;;;;;;;3.40;0.90;;;26.00;84.10;;;;;;4996024;28;20448;-71
2022/06/07 09:08:25;;;;;;;0.70;0.70;;;25.60;83.70;;;;;;4989595;28;20481;-72
2022/06/07 09:13:37;;;;;;;1.00;1.00;;;26.30;83.00;;;;;;4990962;28;20452;-70
2022/06/07 09:16:04;;;;;;;0.90;0.90;;;27.60;79.60;;;;;;4993427;28;20467;-69
2022/06/07 09:18:31;;;;;;;3.43;0.97;;;28.80;77.70;;;;;;4982530;28;20393;-68
2022/06/07 09:21:08;;;;;;;1.10;1.10;;;30.10;72.60;;;;;;4996830;28;20419;-71
2022/06/07 09:23:43;;;;;;;1.23;1.00;;;31.20;69.80;;;;;;4983125;28;20443;-70
2022/06/07 09:26:17;;;;;;;0.83;0.83;;;31.10;66.90;;;;;;4977399;28;20620;-71
2022/06/07 09:28:46;;;;;;;0.90;0.90;;;30.30;67.00;;;;;;4990180;28;20471;-72
2022/06/07 09:31:16;;;;;;;0.90;0.90;;;29.50;68.60;;;;;;5010526;28;20422;-72
2022/06/07 09:33:58;;;;;;;0.80;0.80;;;28.60;71.10;;;;;;4983921;28;20410;-68
2022/06/07 09:36:31;;;;;;;3.50;1.10;;;27.80;71.10;;;;;;4996862;28;20462;-68
2022/06/07 09:39:06;;;;;;;1.00;1.00;;;27.00;74.60;;;;;;4985312;28;20469;-70
2022/06/07 09:41:40;;;;;;;0.97;0.87;;;26.30;75.50;;;;;;4976261;28;20494;-69
2022/06/07 09:44:30;;;;;;;0.83;0.83;;;25.90;78.60;;;;;;4984935;28;20458;-68
2022/06/07 09:47:02;;;;;;;0.73;0.73;;;26.20;79.20;;;;;;4988144;28;20447;-69
2022/06/07 09:49:35;;;;;;;1.57;0.80;;;26.30;78.30;;;;;;4994781;28;20437;-69
2022/06/07 09:52:21;;;;;;;1.00;0.90;;;26.10;78.30;;;;;;4993209;28;20423;-68
2022/06/07 09:54:49;;;;;;;1.00;0.97;;;25.80;78.00;;;;;;4980227;28;20451;-68
2022/06/07 09:57:27;;;;;;;1.20;1.10;;;25.40;78.80;;;;;;4984701;28;20476;-70
2022/06/07 10:00:04;;;;;;;0.87;0.87;;;25.20;80.60;;;;;;4981811;28;20402;-69
2022/06/07 10:02:42;;;;;;;0.93;0.80;;;25.60;83.20;;;;;;4990141;28;20430;-69
2022/06/07 10:05:46;;;;;;;1.20;1.03;;;26.40;78.70;;;;;;4992022;28;20782;-69
2022/06/07 10:08:44;;;;;;;0.73;0.73;;;27.60;77.80;;;;;;4918146;29;20438;-69
2022/06/07 10:11:21;;;;;;;1.23;1.10;;;28.90;74.20;;;;;;4983274;28;20776;-69
2022/06/07 10:14:08;;;;;;;1.27;0.97;;;29.60;71.90;;;;;;4977522;28;20394;-69
2022/06/07 10:16:57;;;;;;;1.00;1.00;;;29.40;69.60;;;;;;4980473;28;20458;-69
2022/06/07 10:19:39;;;;;;;1.03;1.03;;;28.90;71.30;;;;;;4996238;28;20910;-69
2022/06/07 10:22:17;;;;;;;1.03;1.03;;;28.00;72.50;;;;;;4976509;28;20439;-69
2022/06/07 10:25:07;;;;;;;0.97;0.93;;;27.20;73.30;;;;;;4978008;28;20815;-69
2022/06/07 10:27:53;;;;;;;1.00;1.00;;;26.40;75.40;;;;;;4990045;28;20426;-69
2022/06/07 10:30:27;;;;;;;1.00;1.00;;;25.70;77.90;;;;;;4995945;28;20390;-69
2022/06/07 10:33:09;;;;;;;1.27;1.20;;;25.10;79.60;;;;;;4982688;28;20423;-69
2022/06/07 10:36:02;;;;;;;2.47;2.27;;;24.50;81.30;;;;;;4991075;28;20467;-69
2022/06/07 10:38:43;;;;;;;1.07;1.07;;;24.20;84.10;;;;;;4976083;28;20390;-69
2022/06/07 10:41:27;;;;;;;1.00;1.00;;;24.10;85.20;;;;;;4976511;28;20428;-69
2022/06/07 10:44:11;;;;;;;2.10;1.37;;;24.20;84.20;;;;;;4975623;28;20402;-69
2022/06/07 10:46:41;;;;;;;1.17;1.13;;;24.60;83.60;;;;;;4987408;28;20447;-69
2022/06/07 10:49:24;;;;;;;1.17;1.13;;;25.30;85.20;;;;;;4991118;28;20868;-69
2022/06/07 10:52:24;;;;;;;1.20;1.20;;;25.80;81.50;;;;;;4975597;28;20432;-69
2022/06/07 10:55:18;;;;;;;1.00;1.00;;;25.90;80.90;;;;;;4976684;28;20958;-68
2022/06/07 10:57:56;;;;;;;1.17;1.17;;;25.90;82.80;;;;;;4978291;28;20410;-68
2022/06/07 11:00:36;;;;;;;1.50;1.40;;;25.60;82.70;;;;;;4982989;28;20407;-69
2022/06/07 11:03:21;;;;;;;1.60;1.50;;;25.30;82.40;;;;;;4986491;28;20386;-67
2022/06/07 11:11:22;;;;;;;1.47;1.37;;;24.10;85.30;;;;;;4975774;28;20401;-68
2022/06/07 11:13:59;;;;;;;1.47;1.37;;;23.90;87.00;;;;;;4973855;28;20390;-69
2022/06/07 11:16:31;;;;;;;1.07;1.07;;;23.90;87.50;;;;;;4975495;28;20464;-69
2022/06/07 11:19:01;;;;;;;1.07;1.07;;;23.90;86.90;;;;;;4975456;28;20423;-68
2022/06/07 11:21:31;;;;;;;1.30;1.30;;;24.20;87.60;;;;;;4975614;28;20416;-69
2022/06/07 11:24:07;;;;;;;1.70;1.60;;;24.40;87.80;;;;;;4974806;28;20407;-65
2022/06/07 11:27:07;;;;;;;1.40;1.30;;;24.40;86.70;;;;;;4991433;28;20422;-68
2022/06/07 11:29:33;;;;;;;1.20;1.17;;;24.60;85.00;;;;;;4995074;28;20393;-66
2022/06/07 11:32:02;;;;;;;1.33;1.30;;;24.70;84.90;;;;;;4994821;28;20910;-71
2022/06/07 11:34:29;;;;;;;1.13;1.13;;;24.60;84.00;;;;;;4994805;28;20445;-65
2022/06/07 11:37:13;;;;;;;1.10;1.00;;;24.50;84.50;;;;;;4994675;28;20956;-69
2022/06/07 11:39:38;;;;;;;1.30;1.20;;;24.30;85.50;;;;;;4990732;28;20447;-68
2022/06/07 11:42:06;;;;;;;1.40;1.30;;;24.20;85.60;;;;;;4974748;28;20378;-67
2022/06/07 11:44:36;;;;;;;3.83;1.23;;;23.90;85.80;;;;;;4974974;28;20203;-65
2022/06/07 11:47:21;;;;;;;1.00;1.00;;;23.80;85.10;;;;;;4975255;28;20419;-65
2022/06/07 11:49:48;;;;;;;2.10;1.03;;;23.80;84.30;;;;;;4975026;28;20484;-63
2022/06/07 11:52:13;;;;;;;1.03;0.93;;;23.70;83.80;;;;;;4974368;28;20424;-65
2022/06/07 11:54:45;;;;;;;1.37;1.27;;;23.50;85.40;;;;;;4980194;28;20505;-66
2022/06/07 11:57:29;;;;;;;0.90;0.90;;;23.30;84.20;;;;;;4994424;28;20212;-64
2022/06/07 12:00:18;;;;;;;1.13;1.03;;;23.20;85.70;;;;;;4994371;28;20387;-65
2022/06/07 12:03:01;;;;;;;1.77;1.67;;;22.90;88.50;;;;;;4993743;28;20384;-63
2022/06/07 12:05:37;;;;;;;1.13;1.13;;;22.90;89.40;;;;;;4994061;28;20413;-63
2022/06/07 12:08:23;;;;;;;1.00;1.00;;;23.00;90.20;;;;;;4994013;28;20392;-63
2022/06/07 12:11:23;;;;;;;1.10;1.10;;;23.20;89.40;;;;;;4976644;28;20422;-62
2022/06/07 12:14:18;;;;;;;1.60;1.33;;;23.50;89.50;;;;;;4974057;28;20447;-64
2022/06/07 12:16:59;;;;;;;1.43;1.40;;;23.70;88.80;;;;;;4974061;28;20445;-65
2022/06/07 12:19:35;;;;;;;1.27;1.23;;;23.70;87.90;;;;;;4975372;28;20743;-63
2022/06/07 12:22:07;;;;;;;3.50;1.23;;;23.60;87.50;;;;;;4974245;28;20972;-64
2022/06/07 12:24:55;;;;;;;1.40;1.30;;;23.60;87.30;;;;;;4975339;28;20408;-63
2022/06/07 12:27:30;;;;;;;1.40;1.40;;;23.60;87.00;;;;;;4974308;28;20394;-63
2022/06/07 12:30:04;;;;;;;1.10;1.10;;;23.50;87.10;;;;;;4974291;28;20412;-63
2022/06/07 12:32:37;;;;;;;2.03;1.70;;;23.40;87.30;;;;;;4973939;28;20887;-66
2022/06/07 12:35:27;;;;;;;3.80;1.50;;;23.40;88.60;;;;;;4982167;28;20442;-64
2022/06/07 12:38:00;;;;;;;0.83;0.83;;;23.20;86.80;;;;;;4993041;28;20410;-65
2022/06/07 12:40:33;;;;;;;3.00;1.20;;;23.20;86.90;;;;;;4992308;28;20461;-62
2022/06/07 12:43:00;;;;;;;3.60;2.20;;;23.10;85.70;;;;;;4991901;28;20414;-63
2022/06/07 12:45:34;;;;;;;1.40;1.33;;;23.10;85.10;;;;;;4981754;28;20450;-65
2022/06/07 12:48:21;;;;;;;1.33;1.10;;;22.90;85.80;;;;;;4992299;28;20797;-65
2022/06/07 12:50:48;;;;;;;0.70;0.70;;;22.90;85.80;;;;;;4988161;28;20420;-66
2022/06/07 12:53:22;;;;;;;0.90;0.90;;;23.10;85.20;;;;;;4991723;28;20859;-64
2022/06/07 12:56:12;;;;;;;0.90;0.90;;;23.10;86.00;;;;;;4980002;28;20479;-65
2022/06/07 12:58:49;;;;;;;1.10;1.00;;;23.40;85.30;;;;;;4980819;28;20397;-64
2022/06/07 13:01:41;;;;;;;1.27;1.27;;;23.50;85.40;;;;;;4993062;28;20409;-64
2022/06/07 13:04:35;;;;;;;1.50;1.40;;;23.70;86.20;;;;;;4981743;28;20419;-64
2022/06/07 13:07:13;;;;;;;1.40;1.30;;;24.00;84.60;;;;;;4979401;28;20852;-65
2022/06/07 13:09:39;;;;;;;0.80;0.80;;;24.30;84.80;;;;;;4974141;28;20438;-64
2022/06/07 13:12:05;;;;;;;1.50;1.40;;;24.50;83.00;;;;;;4987642;28;20436;-66
2022/06/07 13:14:31;;;;;;;0.83;0.83;;;24.60;82.60;;;;;;4992568;28;20534;-65
2022/06/07 13:17:22;;;;;;;0.87;0.87;;;24.60;83.20;;;;;;4993636;28;20854;-65
2022/06/07 13:19:48;;;;;;;1.13;1.03;;;24.70;83.90;;;;;;4977613;28;20423;-64
2022/06/07 13:22:16;;;;;;;1.10;1.00;;;24.80;85.70;;;;;;4984465;28;20394;-64
2022/06/07 13:24:52;;;;;;;2.53;1.10;;;25.00;83.80;;;;;;4986474;28;20454;-63
2022/06/07 13:27:45;;;;;;;1.00;1.00;;;25.00;83.00;;;;;;4978974;28;20401;-64
2022/06/07 13:30:24;;;;;;;1.13;1.03;;;25.00;85.50;;;;;;4976530;28;20399;-64
2022/06/07 13:33:11;;;;;;;1.20;0.97;;;24.90;83.00;;;;;;4989879;28;20447;-65
2022/06/07 13:35:44;;;;;;;3.57;0.97;;;24.80;81.10;;;;;;4986453;28;20440;-64
2022/06/07 13:38:21;;;;;;;0.90;0.90;;;24.80;81.70;;;;;;4993181;28;20420;-64
2022/06/07 13:40:58;;;;;;;1.50;1.40;;;24.90;83.30;;;;;;4993025;28;20422;-67
2022/06/07 13:43:24;;;;;;;0.80;0.80;;;24.90;83.70;;;;;;4987731;28;20419;-68
2022/06/07 13:45:51;;;;;;;1.17;1.10;;;25.10;82.80;;;;;;4978309;28;20961;-68
2022/06/07 13:48:20;;;;;;;2.37;2.17;;;25.10;82.80;;;;;;4991306;28;20295;-68
2022/06/07 13:53:56;;;;;;;1.00;1.00;;;25.30;81.80;;;;;;4981216;28;20639;-67
2022/06/07 13:56:24;;;;;;;1.30;1.23;;;25.20;81.00;;;;;;4995991;28;20437;-66
2022/06/07 13:58:55;;;;;;;1.63;1.20;;;25.10;80.10;;;;;;4983885;28;20443;-67
2022/06/07 14:01:23;;;;;;;0.90;0.90;;;25.10;81.00;;;;;;4995989;28;20430;-67
2022/06/07 14:03:48;;;;;;;1.10;1.10;;;25.00;81.90;;;;;;4996164;28;20789;-66
2022/06/07 14:06:40;;;;;;;1.40;1.07;;;24.90;81.90;;;;;;4979432;28;20463;-67
2022/06/07 14:09:19;;;;;;;1.30;1.20;;;24.90;81.30;;;;;;4993169;28;20196;-67
2022/06/07 14:11:46;;;;;;;1.13;1.03;;;24.80;82.00;;;;;;4976845;28;20505;-65
2022/06/07 14:14:12;;;;;;;1.03;1.00;;;24.70;82.60;;;;;;4981094;28;20438;-68
2022/06/07 14:16:50;;;;;;;1.83;0.80;;;24.60;82.70;;;;;;4976810;28;20501;-68
2022/06/07 14:19:20;;;;;;;1.10;1.10;;;24.60;81.30;;;;;;4984699;28;20168;-68
2022/06/07 14:21:46;;;;;;;1.10;1.07;;;24.50;81.60;;;;;;4996231;28;20484;-68
2022/06/07 14:24:17;;;;;;;6.33;1.60;;;24.40;81.50;;;;;;4977844;28;20539;-67
2022/06/07 14:26:44;;;;;;;1.20;1.10;;;24.20;82.90;;;;;;4976704;28;20386;-67
2022/06/07 14:29:10;;;;;;;2.07;1.20;;;23.80;85.00;;;;;;4980566;28;20526;-67
2022/06/07 14:31:37;;;;;;;0.90;0.90;;;23.70;85.80;;;;;;4995541;28;20440;-67
2022/06/07 14:34:04;;;;;;;1.67;1.57;;;23.60;88.10;;;;;;4990093;28;20489;-73
2022/06/07 14:36:29;;;;;;;1.13;1.03;;;23.50;87.20;;;;;;4976255;28;20546;-64
2022/06/07 14:38:55;;;;;;;1.20;1.20;;;23.30;87.70;;;;;;4978341;28;20546;-65
2022/06/07 14:41:20;;;;;;;1.00;1.00;;;23.40;88.30;;;;;;4983034;28;20175;-65
2022/06/07 14:43:46;;;;;;;0.93;0.93;;;23.50;87.80;;;;;;4989759;28;20176;-66
2022/06/07 14:46:21;;;;;;;1.07;1.07;;;23.60;85.70;;;;;;4986309;28;20282;-64
2022/06/07 14:48:59;;;;;;;0.67;0.67;;;23.70;84.90;;;;;;4995124;28;20397;-64
2022/06/07 14:51:27;;;;;;;0.90;0.90;;;23.70;85.30;;;;;;4990146;28;20564;-66
2022/06/07 14:53:57;;;;;;;1.30;1.20;;;23.70;84.70;;;;;;4989622;28;20748;-65
2022/06/07 14:56:26;;;;;;;0.70;0.70;;;23.60;85.10;;;;;;4990922;28;20455;-66
2022/06/07 14:58:52;;;;;;;1.27;1.10;;;23.50;85.50;;;;;;4990974;28;20913;-66
2022/06/07 15:01:22;;;;;;;0.80;0.80;;;23.50;84.80;;;;;;4986897;28;20416;-65
2022/06/07 15:03:51;;;;;;;0.93;0.93;;;23.40;85.30;;;;;;4986956;28;20223;-66
2022/06/07 15:06:25;;;;;;;2.50;1.13;;;23.40;85.50;;;;;;4993726;28;20517;-65
2022/06/07 15:08:54;;;;;;;0.93;0.93;;;23.50;85.40;;;;;;4976153;28;20461;-66
2022/06/07 15:11:36;;;;;;;0.87;0.83;;;23.60;85.60;;;;;;4975276;28;20814;-65
2022/06/07 15:14:04;;;;;;;0.80;0.80;;;23.80;85.40;;;;;;4980624;28;20413;-65
2022/06/07 15:16:31;;;;;;;1.80;0.87;;;24.00;84.70;;;;;;4977757;28;20470;-67
2022/06/07 15:18:58;;;;;;;1.33;1.17;;;24.20;83.50;;;;;;4976407;28;20412;-66
2022/06/07 15:21:25;;;;;;;1.00;1.00;;;24.20;83.60;;;;;;4975191;28;20419;-66
2022/06/07 15:23:52;;;;;;;3.57;1.23;;;24.20;85.00;;;;;;4975086;28;20375;-66
2022/06/07 15:26:23;;;;;;;1.00;1.00;;;24.10;84.20;;;;;;4990138;28;20404;-67
2022/06/07 15:28:49;;;;;;;0.93;0.93;;;24.10;84.80;;;;;;4988156;28;20401;-67
2022/06/07 15:31:18;;;;;;;0.93;0.93;;;23.90;85.00;;;;;;4993967;28;20942;-66
2022/06/07 15:33:47;;;;;;;1.00;1.00;;;23.80;85.70;;;;;;4976385;28;20219;-67
2022/06/07 15:36:14;;;;;;;0.73;0.73;;;23.70;86.50;;;;;;4992597;28;20853;-68
2022/06/07 15:38:45;;;;;;;0.80;0.80;;;23.50;84.30;;;;;;4994590;28;20385;-68
2022/06/07 15:43:56;;;;;;;2.03;1.83;;;23.50;88.10;;;;;;4985693;28;20759;-66
2022/06/07 15:46:21;;;;;;;1.27;1.20;;;23.60;88.00;;;;;;4993200;28;20430;-66
2022/06/07 15:48:47;;;;;;;0.90;0.90;;;23.60;87.40;;;;;;4994039;28;20172;-66
2022/06/07 15:51:13;;;;;;;1.03;1.03;;;23.60;88.60;;;;;;4976322;28;20188;-66
2022/06/07 15:53:39;;;;;;;1.00;1.00;;;23.70;87.80;;;;;;4973591;28;20747;-66
2022/06/07 15:56:08;;;;;;;1.00;1.00;;;23.70;86.40;;;;;;4975579;28;20233;-66
2022/06/07 16:01:21;;;;;;;0.67;0.60;;;23.40;86.50;;;;;;4977651;28;20401;-66
2022/06/07 16:03:47;;;;;;;0.90;0.90;;;23.30;87.90;;;;;;4979835;28;20433;-66
2022/06/07 16:06:13;;;;;;;0.83;0.83;;;23.20;88.80;;;;;;4984132;28;20413;-66
2022/06/07 16:08:40;;;;;;;0.87;0.87;;;23.20;89.20;;;;;;4994331;28;20405;-66
2022/06/07 16:11:06;;;;;;;0.70;0.70;;;23.20;89.50;;;;;;4973473;28;20209;-66
2022/06/07 16:13:32;;;;;;;0.80;0.80;;;23.20;89.60;;;;;;4982786;28;20901;-65
2022/06/07 16:16:01;;;;;;;1.90;1.50;;;23.20;88.40;;;;;;4978991;28;20231;-65
2022/06/07 16:18:26;;;;;;;1.23;1.23;;;23.20;88.80;;;;;;4993797;28;20407;-65
2022/06/07 16:20:52;;;;;;;1.27;1.27;;;23.10;88.20;;;;;;4991708;28;20429;-65
2022/06/07 16:23:18;;;;;;;1.30;1.20;;;23.10;88.30;;;;;;4979585;28;20396;-66
2022/06/07 16:25:47;;;;;;;1.60;1.50;;;23.00;89.90;;;;;;4991885;28;20199;-65
2022/06/07 16:33:48;;;;;;;1.90;1.80;;;22.90;90.40;;;;;;4981546;28;20423;-66
2022/06/07 16:36:19;;;;;;;1.20;1.20;;;23.00;90.40;;;;;;4975952;28;20525;-66
2022/06/07 16:38:47;;;;;;;1.10;1.10;;;23.00;90.30;;;;;;4979597;28;20408;-66
2022/06/07 16:41:14;;;;;;;4.20;2.30;;;22.90;89.50;;;;;;4988432;28;20405;-65
2022/06/07 16:46:25;;;;;;;2.60;2.40;;;22.70;91.90;;;;;;4983209;28;20394;-66
2022/06/07 16:48:52;;;;;;;2.10;2.00;;;22.50;92.30;;;;;;4974302;28;20465;-65
2022/06/07 16:51:18;;;;;;;1.37;1.37;;;22.40;92.80;;;;;;4989413;28;20418;-66
2022/06/07 16:53:44;;;;;;;1.23;1.23;;;22.10;93.10;;;;;;4986671;28;20400;-66
2022/06/07 16:56:12;;;;;;;1.63;1.57;;;22.00;93.40;;;;;;4974319;28;20459;-71
2022/06/07 16:58:38;;;;;;;3.87;2.27;;;21.80;94.10;;;;;;4991329;28;20800;-70
2022/06/07 17:01:04;;;;;;;1.53;1.27;;;21.50;94.80;;;;;;4980026;28;20494;-69
2022/06/07 17:03:30;;;;;;;1.13;0.97;;;21.30;95.00;;;;;;4973425;28;20191;-69
2022/06/07 17:05:56;;;;;;;1.50;1.00;;;21.10;95.10;;;;;;4983883;28;20421;-69
2022/06/07 17:08:26;;;;;;;1.40;1.20;;;21.00;95.50;;;;;;4993631;28;20811;-66
2022/06/07 17:10:53;;;;;;;0.73;0.73;;;20.80;96.00;;;;;;4984352;28;20547;-66
2022/06/07 17:13:19;;;;;;;0.70;0.70;;;20.60;96.20;;;;;;4989461;28;20464;-67
2022/06/07 17:15:46;;;;;;;3.93;1.27;;;20.40;96.60;;;;;;4985327;28;20456;-67
2022/06/07 17:18:11;;;;;;;3.63;0.90;;;20.20;97.40;;;;;;4974290;28;20412;-67
2022/06/07 17:20:38;;;;;;;1.50;1.40;;;20.00;98.60;;;;;;4980855;28;20900;-67
2022/06/07 17:23:05;;;;;;;1.50;1.40;;;19.90;99.00;;;;;;4980969;28;20527;-67
2022/06/07 17:25:31;;;;;;;1.50;1.37;;;19.60;99.90;;;;;;4987689;28;20428;-67
2022/06/07 17:27:57;;;;;;;1.60;1.20;;;19.40;99.90;;;;;;4985499;28;20381;-68
2022/06/07 17:30:23;;;;;;;1.07;1.07;;;19.10;99.90;;;;;;4987291;28;20203;-68
2022/06/07 17:32:49;;;;;;;0.70;0.70;;;18.80;99.90;;;;;;4984712;28;20423;-67
2022/06/07 17:35:16;;;;;;;0.97;0.97;;;18.60;99.90;;;;;;4987164;28;20926;-66
2022/06/07 17:37:41;;;;;;;1.57;0.50;;;18.40;99.90;;;;;;4987693;28;20191;-65
2022/06/07 17:40:10;;;;;;;1.17;1.10;;;18.30;99.90;;;;;;4984938;28;20474;-64
2022/06/07 17:42:36;;;;;;;1.97;1.87;;;18.20;99.90;;;;;;4986028;28;20183;-65
2022/06/07 17:45:03;;;;;;;1.33;1.23;;;18.10;99.90;;;;;;4984359;28;20434;-64
2022/06/07 17:47:29;;;;;;;0.70;0.70;;;18.10;99.90;;;;;;4986299;28;20234;-63
2022/06/07 17:49:55;;;;;;;0.70;0.70;;;18.10;99.90;;;;;;4984355;28;20834;-64